Time;durP1;ratioP1;P1;durP2;ratioP2;P2;SDS_P1;SDS_P2;PMS_P1;PMS_P2;Temp;Humidity;BMP_temperature;BMP_pressure;BME280_temperature;BME280_humidity;BME280_pressure;Samples;Min_cycle;Max_cycle;Signal;HPM_P1;HPM_P2
2023/03/17 00:02:25;;;;;;;;;;;;;;;;;;5081234;28;20396;-77
2023/03/17 00:04:51;;;;;;;;;;;;;;;;;;5079403;28;19963;-77
2023/03/17 00:07:16;;;;;;;;;;;;;;;;;;5080165;28;19920;-77
2023/03/17 00:09:41;;;;;;;;;;;;;;;;;;5076148;28;19985;-77
2023/03/17 00:12:07;;;;;;;;;;;;;;;;;;5074320;28;19912;-77
2023/03/17 00:14:32;;;;;;;;;;;;;;;;;;5077716;28;19912;-77
2023/03/17 00:16:57;;;;;;;;;;;;;;;;;;5088591;28;19933;-78
2023/03/17 00:19:23;;;;;;;;;;;;;;;;;;5076971;28;20001;-77
2023/03/17 00:21:48;;;;;;;;;;;;;;;;;;5084214;28;19916;-78
2023/03/17 00:24:13;;;;;;;;;;;;;;;;;;5085343;28;19912;-77
2023/03/17 00:26:40;;;;;;;;;;;;;;;;;;5088508;28;19916;-78
2023/03/17 00:29:05;;;;;;;;;;;;;;;;;;5072721;28;19994;-77
2023/03/17 00:31:30;;;;;;;;;;;;;;;;;;5082518;28;19924;-78
2023/03/17 00:33:55;;;;;;;;;;;;;;;;;;5072661;28;19912;-78
2023/03/17 00:36:21;;;;;;;;;;;;;;;;;;5076062;28;19927;-78
2023/03/17 00:38:46;;;;;;;;;;;;;;;;;;5084410;28;19912;-78
2023/03/17 00:41:11;;;;;;;;;;;;;;;;;;5080592;28;19916;-78
2023/03/17 00:43:37;;;;;;;;;;;;;;;;;;5084774;28;19920;-78
2023/03/17 00:46:02;;;;;;;;;;;;;;;;;;5082670;28;19919;-78
2023/03/17 00:48:28;;;;;;;;;;;;;;;;;;5084031;28;19986;-77
2023/03/17 00:50:54;;;;;;;;;;;;;;;;;;5085558;28;20292;-77
2023/03/17 00:53:20;;;;;;;;;;;;;;;;;;5079709;28;20369;-76
2023/03/17 00:55:45;;;;;;;;;;;;;;;;;;5086856;28;19916;-77
2023/03/17 00:58:11;;;;;;;;;;;;;;;;;;5086098;28;19912;-77
2023/03/17 01:00:36;;;;;;;;;;;;;;;;;;5075841;28;19965;-77
2023/03/17 01:03:01;;;;;;;;;;;;;;;;;;5072535;28;19919;-77
2023/03/17 01:05:27;;;;;;;;;;;;;;;;;;5086335;28;20438;-77
2023/03/17 01:07:52;;;;;;;;;;;;;;;;;;5076667;28;20360;-77
2023/03/17 01:10:17;;;;;;;;;;;;;;;;;;5083390;28;20368;-77
2023/03/17 01:12:44;;;;;;;;;;;;;;;;;;5085300;28;19935;-77
2023/03/17 01:15:09;;;;;;;;;;;;;;;;;;5074608;28;19912;-77
2023/03/17 01:17:34;;;;;;;;;;;;;;;;;;5080716;28;19922;-78
2023/03/17 01:19:59;;;;;;;;;;;;;;;;;;5084078;28;20387;-77
2023/03/17 01:22:25;;;;;;;;;;;;;;;;;;5075971;28;19912;-77
2023/03/17 01:24:50;;;;;;;;;;;;;;;;;;5081070;28;19923;-77
2023/03/17 01:27:15;;;;;;;;;;;;;;;;;;5086639;28;19993;-77
2023/03/17 01:29:40;;;;;;;;;;;;;;;;;;5089146;28;19962;-77
2023/03/17 01:32:05;;;;;;;;;;;;;;;;;;5080488;28;20007;-77
2023/03/17 01:34:31;;;;;;;;;;;;;;;;;;5076783;28;20585;-77
2023/03/17 01:36:57;;;;;;;;;;;;;;;;;;5081285;28;19962;-77
2023/03/17 01:39:22;;;;;;;;;;;;;;;;;;5073774;28;19936;-78
2023/03/17 01:41:47;;;;;;;;;;;;;;;;;;5086524;28;19954;-78
2023/03/17 01:44:12;;;;;;;;;;;;;;;;;;5083124;28;19923;-78
2023/03/17 01:46:37;;;;;;;;;;;;;;;;;;5084609;28;20403;-79
2023/03/17 01:49:04;;;;;;;;;;;;;;;;;;5078397;28;19927;-78
2023/03/17 01:51:30;;;;;;;;;;;;;;;;;;5071222;28;20409;-77
2023/03/17 01:53:55;;;;;;;;;;;;;;;;;;5073632;28;19920;-77
2023/03/17 01:56:21;;;;;;;;;;;;;;;;;;5078246;28;19927;-77
2023/03/17 01:58:46;;;;;;;;;;;;;;;;;;5072469;28;19923;-77
2023/03/17 02:01:12;;;;;;;;;;;;;;;;;;5071437;28;19923;-77
2023/03/17 02:03:38;;;;;;;;;;;;;;;;;;5073523;28;20264;-77
2023/03/17 02:06:03;;;;;;;;;;;;;;;;;;5071796;28;19916;-77
2023/03/17 02:08:29;;;;;;;;;;;;;;;;;;5074094;28;20111;-78
2023/03/17 02:10:55;;;;;;;;;;;;;;;;;;5072283;28;19925;-77
2023/03/17 02:13:20;;;;;;;;;;;;;;;;;;5073101;28;20269;-77
2023/03/17 02:15:47;;;;;;;;;;;;;;;;;;5081354;28;20390;-77
2023/03/17 02:18:12;;;;;;;;;;;;;;;;;;5070687;28;19926;-77
2023/03/17 02:20:37;;;;;;;;;;;;;;;;;;5078077;28;19912;-77
2023/03/17 02:23:03;;;;;;;;;;;;;;;;;;5070723;28;19927;-77
2023/03/17 02:25:29;;;;;;;;;;;;;;;;;;5081828;28;19920;-77
2023/03/17 02:27:54;;;;;;;;;;;;;;;;;;5070388;28;19913;-77
2023/03/17 02:30:19;;;;;;;;;;;;;;;;;;5071707;28;19932;-77
2023/03/17 02:32:45;;;;;;;;;;;;;;;;;;5080269;28;19923;-77
2023/03/17 02:35:10;;;;;;;;;;;;;;;;;;5081668;28;19913;-77
2023/03/17 02:37:35;;;;;;;;;;;;;;;;;;5079869;28;19948;-77
2023/03/17 02:40:01;;;;;;;;;;;;;;;;;;5080722;28;20365;-77
2023/03/17 02:42:26;;;;;;;;;;;;;;;;;;5085337;28;19923;-77
2023/03/17 02:44:52;;;;;;;;;;;;;;;;;;5073744;28;20288;-77
2023/03/17 02:47:17;;;;;;;;;;;;;;;;;;5077017;28;20376;-77
2023/03/17 02:49:42;;;;;;;;;;;;;;;;;;5074221;28;19921;-77
2023/03/17 02:52:08;;;;;;;;;;;;;;;;;;5082250;28;19935;-77
2023/03/17 02:54:33;;;;;;;;;;;;;;;;;;5074211;28;20311;-78
2023/03/17 02:56:58;;;;;;;;;;;;;;;;;;5079345;28;20383;-77
2023/03/17 02:59:23;;;;;;;;;;;;;;;;;;5079137;28;19912;-77
2023/03/17 03:01:49;;;;;;;;;;;;;;;;;;5074269;28;19913;-77
2023/03/17 03:04:14;;;;;;;;;;;;;;;;;;5070776;28;19912;-77
2023/03/17 03:06:41;;;;;;;;;;;;;;;;;;5078640;28;19958;-77
2023/03/17 03:09:06;;;;;;;;;;;;;;;;;;5081926;28;19917;-77
2023/03/17 03:11:31;;;;;;;;;;;;;;;;;;5077704;28;20368;-77
2023/03/17 03:13:56;;;;;;;;;;;;;;;;;;5085408;28;19965;-77
2023/03/17 03:16:21;;;;;;;;;;;;;;;;;;5087904;28;19962;-77
2023/03/17 03:18:47;;;;;;;;;;;;;;;;;;5086803;28;19957;-77
2023/03/17 03:21:12;;;;;;;;;;;;;;;;;;5085162;28;19919;-77
2023/03/17 03:23:37;;;;;;;;;;;;;;;;;;5090784;28;19912;-77
2023/03/17 03:26:02;;;;;;;;;;;;;;;;;;5081970;28;19913;-77
2023/03/17 03:28:28;;;;;;;;;;;;;;;;;;5088842;28;19914;-77
2023/03/17 03:30:53;;;;;;;;;;;;;;;;;;5082525;28;19916;-76
2023/03/17 03:33:18;;;;;;;;;;;;;;;;;;5079934;28;19923;-76
2023/03/17 03:35:43;;;;;;;;;;;;;;;;;;5084262;28;19936;-76
2023/03/17 03:38:08;;;;;;;;;;;;;;;;;;5079797;28;19912;-76
2023/03/17 03:40:33;;;;;;;;;;;;;;;;;;5087817;28;19973;-76
2023/03/17 03:42:58;;;;;;;;;;;;;;;;;;5080937;28;19975;-76
2023/03/17 03:45:24;;;;;;;;;;;;;;;;;;5085374;28;19919;-76
2023/03/17 03:47:49;;;;;;;;;;;;;;;;;;5075382;28;19927;-76
2023/03/17 03:50:14;;;;;;;;;;;;;;;;;;5077213;28;19916;-76
2023/03/17 03:52:40;;;;;;;;;;;;;;;;;;5082751;28;19921;-76
2023/03/17 03:55:05;;;;;;;;;;;;;;;;;;5076369;28;19917;-76
2023/03/17 03:57:30;;;;;;;;;;;;;;;;;;5075149;28;20279;-76
2023/03/17 03:59:56;;;;;;;;;;;;;;;;;;5093754;28;19994;-77
2023/03/17 04:02:21;;;;;;;;;;;;;;;;;;5082548;28;19913;-76
2023/03/17 04:04:46;;;;;;;;;;;;;;;;;;5091610;28;19912;-77
2023/03/17 04:07:12;;;;;;;;;;;;;;;;;;5088864;28;19913;-77
2023/03/17 04:09:38;;;;;;;;;;;;;;;;;;5081599;28;20287;-76
2023/03/17 04:12:03;;;;;;;;;;;;;;;;;;5082021;28;19916;-75
2023/03/17 04:14:28;;;;;;;;;;;;;;;;;;5076442;28;20299;-76
2023/03/17 04:16:53;;;;;;;;;;;;;;;;;;5072090;28;20353;-76
2023/03/17 04:19:20;;;;;;;;;;;;;;;;;;5086015;28;19912;-77
2023/03/17 04:21:45;;;;;;;;;;;;;;;;;;5086020;28;19916;-77
2023/03/17 04:24:11;;;;;;;;;;;;;;;;;;5081712;28;19920;-77
2023/03/17 04:26:36;;;;;;;;;;;;;;;;;;5077305;28;19912;-78
2023/03/17 04:29:01;;;;;;;;;;;;;;;;;;5090112;28;19934;-78
2023/03/17 04:31:26;;;;;;;;;;;;;;;;;;5077931;28;19920;-77
2023/03/17 04:33:51;;;;;;;;;;;;;;;;;;5072424;28;19920;-77
2023/03/17 04:36:18;;;;;;;;;;;;;;;;;;5086283;28;19913;-77
2023/03/17 04:38:43;;;;;;;;;;;;;;;;;;5078515;28;20371;-77
2023/03/17 04:41:08;;;;;;;;;;;;;;;;;;5087561;28;19912;-77
2023/03/17 04:43:33;;;;;;;;;;;;;;;;;;5076591;28;20011;-77
2023/03/17 04:45:58;;;;;;;;;;;;;;;;;;5090302;28;20269;-77
2023/03/17 04:48:24;;;;;;;;;;;;;;;;;;5079204;28;19976;-78
2023/03/17 04:50:50;;;;;;;;;;;;;;;;;;5084061;28;19920;-79
2023/03/17 04:53:15;;;;;;;;;;;;;;;;;;5082116;28;19918;-77
2023/03/17 04:55:40;;;;;;;;;;;;;;;;;;5082838;28;19912;-77
2023/03/17 04:58:06;;;;;;;;;;;;;;;;;;5089107;28;19959;-77
2023/03/17 05:00:37;;;;;;;;;;;;;;;;;;5072641;28;19935;-77
2023/03/17 05:03:03;;;;;;;;;;;;;;;;;;5076488;28;19912;-77
2023/03/17 05:05:28;;;;;;;;;;;;;;;;;;5071721;28;19912;-77
2023/03/17 05:07:53;;;;;;;;;;;;;;;;;;5072724;28;19917;-77
2023/03/17 05:10:18;;;;;;;;;;;;;;;;;;5078368;28;19923;-77
2023/03/17 05:12:44;;;;;;;;;;;;;;;;;;5086625;28;19961;-76
2023/03/17 05:15:09;;;;;;;;;;;;;;;;;;5079346;28;19986;-77
2023/03/17 05:17:35;;;;;;;;;;;;;;;;;;5079938;28;19920;-77
2023/03/17 05:20:00;;;;;;;;;;;;;;;;;;5083830;28;19924;-76
2023/03/17 05:22:25;;;;;;;;;;;;;;;;;;5074907;28;19916;-77
2023/03/17 05:24:51;;;;;;;;;;;;;;;;;;5075844;28;20005;-77
2023/03/17 05:27:16;;;;;;;;;;;;;;;;;;5075914;28;20364;-76
2023/03/17 05:29:41;;;;;;;;;;;;;;;;;;5077847;28;19927;-76
2023/03/17 05:32:06;;;;;;;;;;;;;;;;;;5073433;28;19916;-77
2023/03/17 05:34:32;;;;;;;;;;;;;;;;;;5080254;28;20467;-76
2023/03/17 05:36:57;;;;;;;;;;;;;;;;;;5084285;28;20326;-76
2023/03/17 05:39:22;;;;;;;;;;;;;;;;;;5072418;28;19923;-82
2023/03/17 05:41:49;;;;;;;;;;;;;;;;;;5079789;28;20299;-83
2023/03/17 05:44:15;;;;;;;;;;;;;;;;;;5083398;28;19926;-80
2023/03/17 05:46:40;;;;;;;;;;;;;;;;;;5083477;28;19980;-80
2023/03/17 05:49:06;;;;;;;;;;;;;;;;;;5074053;28;19924;-81
2023/03/17 05:51:31;;;;;;;;;;;;;;;;;;5074023;28;19965;-78
2023/03/17 05:53:57;;;;;;;;;;;;;;;;;;5074461;28;20003;-79
2023/03/17 05:56:23;;;;;;;;;;;;;;;;;;5073257;28;19919;-80
2023/03/17 05:58:48;;;;;;;;;;;;;;;;;;5073448;28;20395;-80
2023/03/17 06:01:14;;;;;;;;;;;;;;;;;;5072253;28;19928;-80
2023/03/17 06:03:39;;;;;;;;;;;;;;;;;;5070545;28;19927;-80
2023/03/17 06:06:08;;;;;;;;;;;;;;;;;;5071267;28;19913;-78
2023/03/17 06:08:33;;;;;;;;;;;;;;;;;;5070963;28;20490;-79
2023/03/17 06:10:58;;;;;;;;;;;;;;;;;;5073352;28;19931;-78
2023/03/17 06:13:23;;;;;;;;;;;;;;;;;;5071024;28;20047;-79
2023/03/17 06:15:48;;;;;;;;;;;;;;;;;;5074199;28;19940;-77
2023/03/17 06:18:13;;;;;;;;;;;;;;;;;;5082934;28;20371;-78
2023/03/17 06:20:39;;;;;;;;;;;;;;;;;;5089499;28;20395;-83
2023/03/17 06:23:05;;;;;;;;;;;;;;;;;;5081918;28;20399;-77
2023/03/17 06:25:30;;;;;;;;;;;;;;;;;;5081572;28;19957;-78
2023/03/17 06:27:56;;;;;;;;;;;;;;;;;;5085587;28;19912;-78
2023/03/17 06:30:21;;;;;;;;;;;;;;;;;;5089120;28;19924;-79
2023/03/17 06:32:47;;;;;;;;;;;;;;;;;;5082274;28;19916;-78
2023/03/17 06:35:12;;;;;;;;;;;;;;;;;;5071493;28;19990;-79
2023/03/17 06:37:37;;;;;;;;;;;;;;;;;;5074827;28;20300;-79
2023/03/17 06:40:04;;;;;;;;;;;;;;;;;;5070465;28;19947;-82
2023/03/17 06:42:30;;;;;;;;;;;;;;;;;;5076550;28;19908;-81
2023/03/17 06:44:55;;;;;;;;;;;;;;;;;;5073230;28;19912;-80
2023/03/17 06:47:21;;;;;;;;;;;;;;;;;;5084257;28;20379;-80
2023/03/17 06:49:46;;;;;;;;;;;;;;;;;;5079771;28;19919;-82
2023/03/17 06:52:12;;;;;;;;;;;;;;;;;;5078423;28;19916;-81
2023/03/17 06:54:37;;;;;;;;;;;;;;;;;;5094222;28;19912;-80
2023/03/17 06:57:02;;;;;;;;;;;;;;;;;;5084360;28;19959;-81
2023/03/17 06:59:29;;;;;;;;;;;;;;;;;;5080256;28;19912;-80
2023/03/17 07:01:54;;;;;;;;;;;;;;;;;;5076406;28;19916;-80
2023/03/17 07:04:19;;;;;;;;;;;;;;;;;;5074120;28;19916;-79
2023/03/17 07:06:44;;;;;;;;;;;;;;;;;;5077036;28;20316;-78
2023/03/17 07:09:10;;;;;;;;;;;;;;;;;;5073652;28;20399;-77
2023/03/17 07:11:35;;;;;;;;;;;;;;;;;;5076102;28;19913;-78
2023/03/17 07:14:00;;;;;;;;;;;;;;;;;;5076847;28;19920;-78
2023/03/17 07:16:26;;;;;;;;;;;;;;;;;;5079717;28;19924;-79
2023/03/17 07:18:51;;;;;;;;;;;;;;;;;;5082654;28;19919;-78
2023/03/17 07:21:16;;;;;;;;;;;;;;;;;;5075030;28;19912;-78
2023/03/17 07:23:41;;;;;;;;;;;;;;;;;;5075261;28;19916;-79
2023/03/17 07:26:06;;;;;;;;;;;;;;;;;;5083338;28;19908;-78
2023/03/17 07:28:32;;;;;;;;;;;;;;;;;;5074829;28;19999;-77
2023/03/17 07:30:57;;;;;;;;;;;;;;;;;;5095982;28;19915;-78
2023/03/17 07:33:22;;;;;;;;;;;;;;;;;;5074256;28;19943;-77
2023/03/17 07:35:47;;;;;;;;;;;;;;;;;;5087870;28;19920;-79
2023/03/17 07:38:12;;;;;;;;;;;;;;;;;;5074584;28;19954;-78
2023/03/17 07:40:38;;;;;;;;;;;;;;;;;;5078359;28;20287;-78
2023/03/17 07:43:03;;;;;;;;;;;;;;;;;;5083995;28;20335;-78
2023/03/17 07:45:28;;;;;;;;;;;;;;;;;;5083711;28;20359;-78
2023/03/17 07:47:53;;;;;;;;;;;;;;;;;;5091525;28;19920;-78
2023/03/17 07:50:19;;;;;;;;;;;;;;;;;;5072316;28;19924;-78
2023/03/17 07:52:44;;;;;;;;;;;;;;;;;;5082639;28;19998;-77
2023/03/17 07:55:11;;;;;;;;;;;;;;;;;;5087227;28;20280;-79
2023/03/17 07:57:36;;;;;;;;;;;;;;;;;;5073349;28;19920;-78
2023/03/17 08:00:02;;;;;;;;;;;;;;;;;;5081016;28;19917;-78
2023/03/17 08:02:28;;;;;;;;;;;;;;;;;;5088111;28;19935;-79
2023/03/17 08:04:53;;;;;;;;;;;;;;;;;;5087496;28;20291;-78
2023/03/17 08:07:19;;;;;;;;;;;;;;;;;;5074312;28;20375;-81
2023/03/17 08:09:44;;;;;;;;;;;;;;;;;;5085560;28;19962;-79
2023/03/17 08:12:09;;;;;;;;;;;;;;;;;;5080418;28;19912;-80
2023/03/17 08:14:34;;;;;;;;;;;;;;;;;;5075487;28;20312;-78
2023/03/17 08:16:59;;;;;;;;;;;;;;;;;;5080512;28;20377;-78
2023/03/17 08:19:25;;;;;;;;;;;;;;;;;;5084242;28;19974;-84
2023/03/17 08:21:50;;;;;;;;;;;;;;;;;;5082879;28;20280;-79
2023/03/17 08:24:15;;;;;;;;;;;;;;;;;;5084999;28;19922;-82
2023/03/17 08:26:40;;;;;;;;;;;;;;;;;;5082851;28;19961;-82
2023/03/17 08:29:06;;;;;;;;;;;;;;;;;;5075973;28;19917;-80
2023/03/17 08:31:32;;;;;;;;;;;;;;;;;;5082590;28;19912;-80
2023/03/17 08:33:57;;;;;;;;;;;;;;;;;;5079871;28;19916;-82
2023/03/17 08:36:23;;;;;;;;;;;;;;;;;;5087420;28;20368;-80
2023/03/17 08:38:48;;;;;;;;;;;;;;;;;;5079473;28;19912;-79
2023/03/17 08:41:13;;;;;;;;;;;;;;;;;;5078253;28;20272;-80
2023/03/17 08:43:38;;;;;;;;;;;;;;;;;;5084385;28;20162;-79
2023/03/17 08:46:03;;;;;;;;;;;;;;;;;;5084923;28;19913;-78
2023/03/17 08:48:29;;;;;;;;;;;;;;;;;;5082019;28;19943;-79
2023/03/17 08:50:54;;;;;;;;;;;;;;;;;;5082523;28;19916;-81
2023/03/17 08:53:19;;;;;;;;;;;;;;;;;;5085984;28;19935;-81
2023/03/17 08:55:44;;;;;;;;;;;;;;;;;;5082511;28;19912;-81
2023/03/17 08:58:10;;;;;;;;;;;;;;;;;;5081611;28;19963;-82
2023/03/17 09:00:35;;;;;;;;;;;;;;;;;;5078675;28;20319;-79
2023/03/17 09:03:00;;;;;;;;;;;;;;;;;;5077175;28;19928;-80
2023/03/17 09:05:25;;;;;;;;;;;;;;;;;;5076493;28;19962;-81
2023/03/17 09:07:51;;;;;;;;;;;;;;;;;;5075598;28;20285;-83
2023/03/17 09:10:21;;;;;;;;;;;;;;;;;;5076193;28;20292;-80
2023/03/17 09:12:47;;;;;;;;;;;;;;;;;;5085346;28;19992;-79
2023/03/17 09:15:12;;;;;;;;;;;;;;;;;;5080946;28;19963;-81
2023/03/17 09:17:37;;;;;;;;;;;;;;;;;;5097343;28;19915;-80
2023/03/17 09:20:02;;;;;;;;;;;;;;;;;;5078732;28;20068;-78
2023/03/17 09:22:27;;;;;;;;;;;;;;;;;;5074761;28;19920;-77
2023/03/17 09:24:52;;;;;;;;;;;;;;;;;;5076882;28;19916;-76
2023/03/17 09:27:17;;;;;;;;;;;;;;;;;;5084317;28;19915;-79
2023/03/17 09:29:43;;;;;;;;;;;;;;;;;;5077727;28;20450;-76
2023/03/17 09:32:08;;;;;;;;;;;;;;;;;;5073880;28;20007;-79
2023/03/17 09:34:34;;;;;;;;;;;;;;;;;;5080692;28;19966;-77
2023/03/17 09:36:59;;;;;;;;;;;;;;;;;;5075955;28;19923;-78
2023/03/17 09:39:26;;;;;;;;;;;;;;;;;;5085456;28;19913;-77
2023/03/17 09:41:51;;;;;;;;;;;;;;;;;;5078889;28;19912;-78
2023/03/17 09:44:16;;;;;;;;;;;;;;;;;;5079990;28;19942;-77
2023/03/17 09:46:41;;;;;;;;;;;;;;;;;;5087944;28;19911;-79
2023/03/17 09:49:06;;;;;;;;;;;;;;;;;;5074044;28;19928;-78
2023/03/17 09:51:32;;;;;;;;;;;;;;;;;;5077442;28;20006;-77
2023/03/17 09:53:58;;;;;;;;;;;;;;;;;;5082240;28;19934;-76
2023/03/17 09:56:23;;;;;;;;;;;;;;;;;;5083238;28;19947;-78
2023/03/17 09:58:49;;;;;;;;;;;;;;;;;;5079020;28;20446;-77
2023/03/17 10:01:14;;;;;;;;;;;;;;;;;;5076083;28;19912;-78
2023/03/17 10:03:39;;;;;;;;;;;;;;;;;;5083592;28;19912;-76
2023/03/17 10:06:04;;;;;;;;;;;;;;;;;;5078135;28;19947;-78
2023/03/17 10:08:29;;;;;;;;;;;;;;;;;;5077876;28;19912;-77
2023/03/17 10:10:54;;;;;;;;;;;;;;;;;;5081604;28;20353;-78
2023/03/17 10:13:20;;;;;;;;;;;;;;;;;;5076695;28;19913;-76
2023/03/17 10:15:45;;;;;;;;;;;;;;;;;;5077511;28;19917;-78
2023/03/17 10:18:11;;;;;;;;;;;;;;;;;;5086016;28;20386;-77
2023/03/17 10:20:36;;;;;;;;;;;;;;;;;;5076411;28;19916;-78
2023/03/17 10:23:02;;;;;;;;;;;;;;;;;;5081337;28;19919;-76
2023/03/17 10:25:27;;;;;;;;;;;;;;;;;;5076402;28;19958;-78
2023/03/17 10:27:52;;;;;;;;;;;;;;;;;;5079149;28;20316;-78
2023/03/17 10:30:18;;;;;;;;;;;;;;;;;;5081401;28;19916;-78
2023/03/17 10:32:43;;;;;;;;;;;;;;;;;;5092349;28;19912;-79
2023/03/17 10:35:09;;;;;;;;;;;;;;;;;;5074922;28;20402;-79
2023/03/17 10:37:35;;;;;;;;;;;;;;;;;;5089470;28;19959;-78
2023/03/17 10:40:02;;;;;;;;;;;;;;;;;;5080925;28;19970;-79
2023/03/17 10:42:28;;;;;;;;;;;;;;;;;;5085202;28;20003;-79
2023/03/17 10:44:53;;;;;;;;;;;;;;;;;;5081462;28;20015;-75
2023/03/17 10:47:18;;;;;;;;;;;;;;;;;;5082044;28;19912;-79
2023/03/17 10:49:44;;;;;;;;;;;;;;;;;;5081976;28;20385;-77
2023/03/17 10:52:10;;;;;;;;;;;;;;;;;;5074407;28;19920;-77
2023/03/17 10:54:35;;;;;;;;;;;;;;;;;;5077825;28;20445;-78
2023/03/17 10:57:01;;;;;;;;;;;;;;;;;;5079100;28;19955;-77
2023/03/17 10:59:26;;;;;;;;;;;;;;;;;;5077214;28;20334;-77
2023/03/17 11:01:51;;;;;;;;;;;;;;;;;;5078144;28;19919;-77
2023/03/17 11:04:17;;;;;;;;;;;;;;;;;;5078435;28;19913;-78
2023/03/17 11:06:43;;;;;;;;;;;;;;;;;;5076753;28;19913;-78
2023/03/17 11:09:08;;;;;;;;;;;;;;;;;;5084144;28;20292;-76
2023/03/17 11:11:33;;;;;;;;;;;;;;;;;;5075857;28;19912;-76
2023/03/17 11:13:58;;;;;;;;;;;;;;;;;;5073465;28;20316;-77
2023/03/17 11:16:25;;;;;;;;;;;;;;;;;;5080670;28;19912;-76
2023/03/17 11:18:51;;;;;;;;;;;;;;;;;;5083285;28;19916;-77
2023/03/17 11:21:17;;;;;;;;;;;;;;;;;;5080589;28;19912;-78
2023/03/17 11:23:42;;;;;;;;;;;;;;;;;;5085325;28;20335;-79
2023/03/17 11:26:07;;;;;;;;;;;;;;;;;;5074817;28;19981;-79
2023/03/17 11:28:33;;;;;;;;;;;;;;;;;;5077085;28;19916;-79
2023/03/17 11:30:58;;;;;;;;;;;;;;;;;;5081757;28;20434;-76
2023/03/17 11:33:23;;;;;;;;;;;;;;;;;;5070828;28;20402;-76
2023/03/17 11:35:48;;;;;;;;;;;;;;;;;;5077758;28;19909;-76
2023/03/17 11:38:13;;;;;;;;;;;;;;;;;;5084533;28;19955;-76
2023/03/17 11:40:38;;;;;;;;;;;;;;;;;;5077805;28;20321;-76
2023/03/17 11:43:03;;;;;;;;;;;;;;;;;;5076219;28;20341;-76
2023/03/17 11:45:29;;;;;;;;;;;;;;;;;;5081701;28;20472;-77
2023/03/17 11:47:54;;;;;;;;;;;;;;;;;;5079958;28;20492;-76
2023/03/17 11:50:19;;;;;;;;;;;;;;;;;;5076535;28;19931;-77
2023/03/17 11:52:45;;;;;;;;;;;;;;;;;;5077463;28;20008;-76
2023/03/17 11:55:10;;;;;;;;;;;;;;;;;;5080451;28;19912;-76
2023/03/17 11:57:35;;;;;;;;;;;;;;;;;;5076268;28;19944;-76
2023/03/17 12:00:00;;;;;;;;;;;;;;;;;;5078848;28;19912;-76
2023/03/17 12:02:26;;;;;;;;;;;;;;;;;;5082770;28;19916;-78
2023/03/17 12:04:52;;;;;;;;;;;;;;;;;;5084189;28;19916;-77
2023/03/17 12:07:17;;;;;;;;;;;;;;;;;;5082792;28;19964;-79
2023/03/17 12:09:44;;;;;;;;;;;;;;;;;;5075179;28;19974;-86
2023/03/17 12:12:10;;;;;;;;;;;;;;;;;;5068507;28;19969;-78
2023/03/17 12:14:35;;;;;;;;;;;;;;;;;;5069910;28;20082;-78
2023/03/17 12:17:00;;;;;;;;;;;;;;;;;;5070123;28;19923;-79
2023/03/17 12:19:26;;;;;;;;;;;;;;;;;;5072761;28;20354;-77
2023/03/17 12:21:53;;;;;;;;;;;;;;;;;;5073350;28;19916;-78
2023/03/17 12:24:18;;;;;;;;;;;;;;;;;;5070871;28;19909;-78
2023/03/17 12:26:44;;;;;;;;;;;;;;;;;;5075596;28;19916;-78
2023/03/17 12:29:09;;;;;;;;;;;;;;;;;;5084778;28;19908;-80
2023/03/17 12:31:34;;;;;;;;;;;;;;;;;;5075422;28;20360;-77
2023/03/17 12:33:59;;;;;;;;;;;;;;;;;;5075383;28;19915;-82
2023/03/17 12:36:25;;;;;;;;;;;;;;;;;;5074177;28;19913;-81
2023/03/17 12:38:50;;;;;;;;;;;;;;;;;;5088854;28;19916;-80
2023/03/17 12:41:15;;;;;;;;;;;;;;;;;;5073666;28;19912;-79
2023/03/17 12:43:40;;;;;;;;;;;;;;;;;;5079140;28;19928;-79
2023/03/17 12:46:05;;;;;;;;;;;;;;;;;;5077401;28;20390;-79
2023/03/17 12:48:31;;;;;;;;;;;;;;;;;;5080242;28;19950;-80
2023/03/17 12:51:04;;;;;;;;;;;;;;;;;;5078090;28;20315;-80
2023/03/17 12:53:29;;;;;;;;;;;;;;;;;;5079429;28;19916;-79
2023/03/17 12:55:55;;;;;;;;;;;;;;;;;;5083093;28;19919;-78
2023/03/17 12:58:20;;;;;;;;;;;;;;;;;;5074624;28;19916;-78
2023/03/17 13:00:45;;;;;;;;;;;;;;;;;;5073202;28;19916;-81
2023/03/17 13:03:10;;;;;;;;;;;;;;;;;;5076575;28;19912;-79
2023/03/17 13:05:36;;;;;;;;;;;;;;;;;;5077444;28;20312;-78
2023/03/17 13:08:01;;;;;;;;;;;;;;;;;;5087286;28;19908;-77
2023/03/17 13:10:26;;;;;;;;;;;;;;;;;;5079791;28;20006;-78
2023/03/17 13:12:51;;;;;;;;;;;;;;;;;;5078407;28;20011;-79
2023/03/17 13:15:16;;;;;;;;;;;;;;;;;;5072057;28;19927;-77
2023/03/17 13:17:42;;;;;;;;;;;;;;;;;;5087013;28;20318;-77
2023/03/17 13:20:07;;;;;;;;;;;;;;;;;;5072135;28;19912;-77
2023/03/17 13:22:32;;;;;;;;;;;;;;;;;;5075756;28;19959;-77
2023/03/17 13:24:58;;;;;;;;;;;;;;;;;;5075793;28;20360;-78
2023/03/17 13:27:23;;;;;;;;;;;;;;;;;;5077215;28;20353;-77
2023/03/17 13:29:48;;;;;;;;;;;;;;;;;;5077367;28;19916;-78
2023/03/17 13:32:13;;;;;;;;;;;;;;;;;;5075124;28;19928;-77
2023/03/17 13:34:38;;;;;;;;;;;;;;;;;;5077616;28;19940;-77
2023/03/17 13:37:04;;;;;;;;;;;;;;;;;;5076603;28;19917;-78
2023/03/17 13:39:29;;;;;;;;;;;;;;;;;;5079110;28;19976;-78
2023/03/17 13:41:56;;;;;;;;;;;;;;;;;;5075976;28;20340;-77
2023/03/17 13:44:22;;;;;;;;;;;;;;;;;;5071381;28;19913;-78
2023/03/17 13:46:47;;;;;;;;;;;;;;;;;;5074643;28;19919;-78
2023/03/17 13:49:13;;;;;;;;;;;;;;;;;;5072569;28;19947;-78
2023/03/17 13:51:38;;;;;;;;;;;;;;;;;;5073251;28;19912;-79
2023/03/17 13:54:04;;;;;;;;;;;;;;;;;;5070397;28;20284;-77
2023/03/17 13:56:29;;;;;;;;;;;;;;;;;;5072727;28;20579;-76
2023/03/17 13:58:54;;;;;;;;;;;;;;;;;;5077235;28;20013;-77
2023/03/17 14:01:20;;;;;;;;;;;;;;;;;;5082739;28;19912;-76
2023/03/17 14:03:47;;;;;;;;;;;;;;;;;;5086752;28;19912;-76
2023/03/17 14:06:13;;;;;;;;;;;;;;;;;;5078254;28;19999;-77
2023/03/17 14:08:38;;;;;;;;;;;;;;;;;;5083750;28;20094;-77
2023/03/17 14:11:05;;;;;;;;;;;;;;;;;;5086866;28;21428;-76
2023/03/17 14:13:30;;;;;;;;;;;;;;;;;;5072110;28;20013;-75
2023/03/17 14:15:55;;;;;;;;;;;;;;;;;;5077268;28;20368;-76
2023/03/17 14:18:20;;;;;;;;;;;;;;;;;;5077653;28;19912;-74
2023/03/17 14:20:46;;;;;;;;;;;;;;;;;;5075924;28;20383;-75
2023/03/17 14:23:11;;;;;;;;;;;;;;;;;;5078108;28;19912;-75
2023/03/17 14:25:36;;;;;;;;;;;;;;;;;;5083643;28;19920;-74
2023/03/17 14:28:01;;;;;;;;;;;;;;;;;;5071931;28;19909;-75
2023/03/17 14:30:26;;;;;;;;;;;;;;;;;;5076724;28;19917;-77
2023/03/17 14:32:51;;;;;;;;;;;;;;;;;;5090117;28;19912;-79
2023/03/17 14:35:16;;;;;;;;;;;;;;;;;;5092339;28;20288;-80
2023/03/17 14:37:42;;;;;;;;;;;;;;;;;;5087430;28;19947;-78
2023/03/17 14:40:09;;;;;;;;;;;;;;;;;;5090722;28;19912;-79
2023/03/17 14:42:34;;;;;;;;;;;;;;;;;;5077057;28;19959;-79
2023/03/17 14:44:59;;;;;;;;;;;;;;;;;;5074645;28;19955;-82
2023/03/17 14:47:24;;;;;;;;;;;;;;;;;;5082925;28;19916;-83
2023/03/17 14:49:49;;;;;;;;;;;;;;;;;;5077330;28;19920;-82
2023/03/17 14:52:15;;;;;;;;;;;;;;;;;;5086338;28;20280;-81
2023/03/17 14:54:40;;;;;;;;;;;;;;;;;;5075941;28;20266;-80
2023/03/17 14:57:05;;;;;;;;;;;;;;;;;;5070982;28;20369;-82
2023/03/17 14:59:30;;;;;;;;;;;;;;;;;;5084649;28;19916;-81
2023/03/17 15:01:56;;;;;;;;;;;;;;;;;;5073065;28;19916;-78
2023/03/17 15:04:21;;;;;;;;;;;;;;;;;;5082048;28;19912;-79
2023/03/17 15:06:46;;;;;;;;;;;;;;;;;;5077091;28;20439;-79
2023/03/17 15:09:11;;;;;;;;;;;;;;;;;;5071276;28;19966;-80
2023/03/17 15:11:37;;;;;;;;;;;;;;;;;;5084882;28;19916;-79
2023/03/17 15:14:02;;;;;;;;;;;;;;;;;;5084497;28;20001;-81
2023/03/17 15:16:28;;;;;;;;;;;;;;;;;;5086712;28;20458;-79
2023/03/17 15:18:53;;;;;;;;;;;;;;;;;;5079413;28;19912;-80
2023/03/17 15:21:18;;;;;;;;;;;;;;;;;;5092325;28;20356;-79
2023/03/17 15:23:46;;;;;;;;;;;;;;;;;;5075828;28;19912;-80
2023/03/17 15:26:11;;;;;;;;;;;;;;;;;;5077910;28;19956;-79
2023/03/17 15:28:37;;;;;;;;;;;;;;;;;;5080692;28;20355;-80
2023/03/17 15:31:02;;;;;;;;;;;;;;;;;;5079502;28;19916;-80
2023/03/17 15:33:27;;;;;;;;;;;;;;;;;;5083201;28;20432;-80
2023/03/17 15:35:52;;;;;;;;;;;;;;;;;;5080826;28;19940;-81
2023/03/17 15:38:17;;;;;;;;;;;;;;;;;;5078360;28;19916;-79
2023/03/17 15:40:42;;;;;;;;;;;;;;;;;;5083123;28;19920;-80
2023/03/17 15:43:07;;;;;;;;;;;;;;;;;;5081886;28;19921;-80
2023/03/17 15:45:33;;;;;;;;;;;;;;;;;;5075536;28;19958;-79
2023/03/17 15:47:58;;;;;;;;;;;;;;;;;;5080692;28;20680;-79
2023/03/17 15:50:23;;;;;;;;;;;;;;;;;;5080397;28;19916;-80
2023/03/17 15:52:48;;;;;;;;;;;;;;;;;;5081745;28;19918;-79
2023/03/17 15:55:13;;;;;;;;;;;;;;;;;;5082011;28;19912;-80
2023/03/17 15:57:38;;;;;;;;;;;;;;;;;;5073715;28;19916;-81
2023/03/17 16:00:03;;;;;;;;;;;;;;;;;;5077297;28;19916;-80
2023/03/17 16:02:29;;;;;;;;;;;;;;;;;;5078215;28;19916;-80
2023/03/17 16:04:54;;;;;;;;;;;;;;;;;;5075460;28;19916;-80
2023/03/17 16:07:20;;;;;;;;;;;;;;;;;;5076516;28;19966;-80
2023/03/17 16:09:45;;;;;;;;;;;;;;;;;;5080995;28;19924;-80
2023/03/17 16:12:10;;;;;;;;;;;;;;;;;;5080674;28;19946;-80
2023/03/17 16:14:35;;;;;;;;;;;;;;;;;;5072156;28;19920;-80
2023/03/17 16:17:00;;;;;;;;;;;;;;;;;;5080917;28;19912;-78
2023/03/17 16:19:26;;;;;;;;;;;;;;;;;;5078806;28;19927;-77
2023/03/17 16:21:51;;;;;;;;;;;;;;;;;;5077313;28;19916;-86
2023/03/17 16:24:17;;;;;;;;;;;;;;;;;;5080253;28;19912;-79
2023/03/17 16:26:42;;;;;;;;;;;;;;;;;;5077946;28;19919;-80
2023/03/17 16:29:07;;;;;;;;;;;;;;;;;;5073342;28;19926;-79
2023/03/17 16:31:33;;;;;;;;;;;;;;;;;;5075140;28;20319;-80
2023/03/17 16:33:58;;;;;;;;;;;;;;;;;;5077120;28;19913;-80